createdAt,value
2018-08-30T00:02:00.080Z,20.90
2018-08-30T00:04:28.227Z,20.90
2018-08-30T00:06:57.295Z,20.90
2018-08-30T00:09:26.376Z,20.90
2018-08-30T00:11:54.650Z,21.00
2018-08-30T00:14:23.243Z,21.00
2018-08-30T00:16:51.467Z,21.00
2018-08-30T00:19:19.693Z,21.00
2018-08-30T00:21:48.078Z,20.90
2018-08-30T00:24:16.336Z,20.90
2018-08-30T00:26:44.521Z,21.00
2018-08-30T00:29:12.702Z,21.00
2018-08-30T00:31:40.868Z,21.00
2018-08-30T00:34:09.148Z,20.90
2018-08-30T00:36:37.369Z,20.90
2018-08-30T00:39:08.655Z,20.90
2018-08-30T00:41:37.171Z,20.90
2018-08-30T00:44:05.363Z,20.90
2018-08-30T00:46:33.667Z,20.90
2018-08-30T00:49:01.857Z,20.90
2018-08-30T00:51:30.474Z,20.90
2018-08-30T00:53:58.639Z,20.90
2018-08-30T00:56:26.926Z,20.90
2018-08-30T00:58:55.090Z,20.90
2018-08-30T01:01:23.404Z,20.90
2018-08-30T01:03:51.582Z,20.90
2018-08-30T01:06:19.854Z,20.90
2018-08-30T01:08:48.954Z,20.90
2018-08-30T01:11:17.272Z,20.90
2018-08-30T01:13:46.132Z,20.80
2018-08-30T01:16:14.418Z,20.80
2018-08-30T01:18:42.561Z,20.80
2018-08-30T01:21:11.388Z,20.80
2018-08-30T01:23:39.948Z,20.70
2018-08-30T01:26:08.148Z,20.80
2018-08-30T01:28:36.440Z,20.80
2018-08-30T01:31:05.050Z,20.80
2018-08-30T01:33:33.531Z,20.80
2018-08-30T01:36:01.894Z,20.80
2018-08-30T01:38:30.188Z,20.80
2018-08-30T01:40:58.388Z,20.80
2018-08-30T01:43:26.663Z,20.80
2018-08-30T01:45:54.853Z,20.80
2018-08-30T01:48:23.210Z,20.80
2018-08-30T01:50:51.420Z,20.80
2018-08-30T01:53:20.273Z,20.80
2018-08-30T01:55:49.049Z,20.80
2018-08-30T01:58:17.973Z,20.80
2018-08-30T02:00:46.141Z,20.80
2018-08-30T02:03:14.404Z,20.80
2018-08-30T02:05:42.763Z,20.70
2018-08-30T02:08:11.871Z,20.70
2018-08-30T02:10:40.047Z,20.70
2018-08-30T02:13:08.370Z,20.70
2018-08-30T02:15:36.593Z,20.70
2018-08-30T02:18:04.919Z,20.80
2018-08-30T02:20:33.114Z,20.70
2018-08-30T02:23:01.439Z,20.80
2018-08-30T02:25:29.563Z,20.80
2018-08-30T02:27:58.771Z,20.80
2018-08-30T02:30:26.892Z,20.70
2018-08-30T02:32:55.209Z,20.80
2018-08-30T02:35:23.374Z,20.80
2018-08-30T02:37:52.337Z,20.80
2018-08-30T02:40:20.510Z,20.80
2018-08-30T02:42:49.543Z,20.80
2018-08-30T02:45:17.672Z,20.80
2018-08-30T02:47:46.237Z,20.80
2018-08-30T02:50:14.781Z,20.80
2018-08-30T02:52:43.159Z,20.80
2018-08-30T02:55:12.194Z,20.80
2018-08-30T02:57:40.602Z,20.80
2018-08-30T03:00:08.785Z,20.80
2018-08-30T03:02:36.986Z,20.80
2018-08-30T03:05:05.255Z,20.70
2018-08-30T03:07:33.563Z,20.70
2018-08-30T03:10:02.910Z,20.70
2018-08-30T03:12:31.870Z,20.70
2018-08-30T03:15:10.926Z,20.80
2018-08-30T03:17:39.264Z,20.70
2018-08-30T03:20:09.731Z,20.70
2018-08-30T03:22:39.371Z,20.70
2018-08-30T03:25:07.734Z,20.70
2018-08-30T03:27:36.076Z,20.70
2018-08-30T03:30:05.594Z,20.70
2018-08-30T03:32:33.899Z,20.70
2018-08-30T03:35:02.146Z,20.70
2018-08-30T03:37:30.451Z,20.70
2018-08-30T03:39:58.542Z,20.70
2018-08-30T03:42:26.726Z,20.70
2018-08-30T03:44:54.918Z,20.70
2018-08-30T03:47:23.146Z,20.70
2018-08-30T03:49:51.260Z,20.70
2018-08-30T03:52:19.390Z,20.70
2018-08-30T03:54:47.509Z,20.70
2018-08-30T03:57:15.580Z,20.70
2018-08-30T03:59:43.880Z,20.80
2018-08-30T04:02:12.089Z,20.80
2018-08-30T04:04:40.309Z,20.80
2018-08-30T04:07:08.573Z,20.90
2018-08-30T04:09:36.834Z,20.80
2018-08-30T04:12:05.759Z,20.70
2018-08-30T04:14:33.949Z,20.70
2018-08-30T04:17:02.462Z,20.70
2018-08-30T04:19:30.800Z,20.70
2018-08-30T04:21:59.077Z,20.70
2018-08-30T04:24:27.253Z,20.70
2018-08-30T04:26:55.598Z,20.70
2018-08-30T04:29:23.705Z,20.60
2018-08-30T04:31:51.925Z,20.60
2018-08-30T04:34:20.166Z,20.60
2018-08-30T04:36:48.431Z,20.60
2018-08-30T04:39:17.144Z,20.60
2018-08-30T04:41:45.795Z,20.60
2018-08-30T04:44:14.016Z,20.60
2018-08-30T04:46:42.237Z,20.60
2018-08-30T04:49:10.350Z,20.60
2018-08-30T04:51:38.549Z,20.60
2018-08-30T04:54:06.737Z,20.60
2018-08-30T04:56:34.983Z,20.70
2018-08-30T04:59:03.233Z,20.70
2018-08-30T05:01:31.417Z,20.70
2018-08-30T05:03:59.663Z,20.70
2018-08-30T05:06:27.863Z,20.70
2018-08-30T05:08:56.421Z,20.70
2018-08-30T05:11:24.646Z,20.80
2018-08-30T05:13:52.777Z,20.80
2018-08-30T05:16:21.002Z,20.80
2018-08-30T05:18:49.131Z,20.80
2018-08-30T05:21:17.327Z,20.80
2018-08-30T05:23:45.556Z,20.80
2018-08-30T05:26:13.844Z,20.80
2018-08-30T05:28:42.098Z,20.70
2018-08-30T05:31:10.402Z,20.60
2018-08-30T05:33:38.569Z,20.50
2018-08-30T05:36:06.777Z,20.50
2018-08-30T05:38:35.001Z,20.50
2018-08-30T05:41:03.271Z,20.50
2018-08-30T05:43:31.385Z,20.50
2018-08-30T05:45:59.749Z,20.40
2018-08-30T05:48:28.025Z,20.40
2018-08-30T05:50:56.186Z,20.30
2018-08-30T05:53:24.270Z,20.10
2018-08-30T05:55:52.629Z,20.00
2018-08-30T05:58:21.530Z,19.90
2018-08-30T06:00:49.659Z,19.90
2018-08-30T06:03:17.899Z,19.90
2018-08-30T06:05:46.045Z,19.90
2018-08-30T06:08:14.304Z,19.80
2018-08-30T06:10:42.773Z,19.80
2018-08-30T06:13:10.884Z,19.80
2018-08-30T06:15:39.117Z,19.90
2018-08-30T06:18:08.693Z,19.90
2018-08-30T06:20:36.891Z,19.90
2018-08-30T06:23:05.091Z,19.90
2018-08-30T06:25:33.373Z,19.80
2018-08-30T06:28:01.549Z,19.90
2018-08-30T06:30:29.863Z,19.80
2018-08-30T06:32:58.181Z,19.70
2018-08-30T06:35:26.317Z,19.70
2018-08-30T06:37:54.503Z,19.70
2018-08-30T06:40:22.843Z,19.80
2018-08-30T06:42:51.291Z,19.80
2018-08-30T06:45:19.562Z,19.90
2018-08-30T06:47:47.891Z,19.90
2018-08-30T06:50:16.343Z,19.90
2018-08-30T06:52:44.711Z,19.90
2018-08-30T06:55:12.925Z,19.90
2018-08-30T06:57:41.210Z,19.90
2018-08-30T07:00:09.472Z,19.90
2018-08-30T07:02:37.660Z,19.80
2018-08-30T07:05:06.407Z,19.80
2018-08-30T07:07:34.526Z,19.80
2018-08-30T07:10:06.676Z,19.80
2018-08-30T07:12:35.004Z,19.70
2018-08-30T07:15:03.543Z,19.80
2018-08-30T07:17:31.888Z,19.80
2018-08-30T07:20:00.043Z,19.80
2018-08-30T07:22:28.454Z,19.80
2018-08-30T07:24:56.922Z,19.90
2018-08-30T07:27:25.516Z,20.00
2018-08-30T07:29:53.864Z,20.00
2018-08-30T07:32:22.005Z,20.00
2018-08-30T07:34:50.201Z,20.00
2018-08-30T07:37:19.220Z,19.90
2018-08-30T07:39:47.424Z,19.90
2018-08-30T07:42:15.581Z,19.80
2018-08-30T07:44:43.782Z,19.90
2018-08-30T07:47:12.096Z,20.00
2018-08-30T07:49:40.303Z,20.20
2018-08-30T07:52:09.099Z,20.40
2018-08-30T07:54:37.463Z,20.60
2018-08-30T07:57:06.167Z,20.70
2018-08-30T07:59:34.807Z,20.80
2018-08-30T08:02:03.109Z,20.80
2018-08-30T08:04:31.361Z,21.00
2018-08-30T08:07:02.559Z,21.40
2018-08-30T08:09:31.180Z,21.70
2018-08-30T08:11:59.685Z,22.00
2018-08-30T08:14:28.088Z,22.20
2018-08-30T08:16:56.432Z,22.10
2018-08-30T08:19:24.679Z,22.20
2018-08-30T08:21:52.951Z,22.20
2018-08-30T08:24:21.241Z,22.20
2018-08-30T08:26:49.586Z,22.20
2018-08-30T08:29:17.875Z,22.00
2018-08-30T08:31:46.101Z,21.90
2018-08-30T08:34:14.431Z,21.80
2018-08-30T08:36:42.699Z,21.60
2018-08-30T08:39:11.161Z,21.50
2018-08-30T08:41:39.452Z,21.20
2018-08-30T08:44:07.761Z,21.00
2018-08-30T08:46:35.976Z,20.80
2018-08-30T08:49:04.320Z,20.60
2018-08-30T08:51:32.606Z,20.50
2018-08-30T08:54:01.324Z,20.40
2018-08-30T08:56:29.600Z,20.30
2018-08-30T08:58:58.341Z,20.30
2018-08-30T09:01:26.577Z,20.20
2018-08-30T09:03:54.840Z,20.20
2018-08-30T09:06:23.085Z,20.20
2018-08-30T09:08:51.281Z,20.10
2018-08-30T09:11:19.525Z,20.10
2018-08-30T09:13:47.720Z,20.00
2018-08-30T09:16:15.964Z,20.00
2018-08-30T09:18:44.272Z,20.00
2018-08-30T09:21:12.551Z,20.10
2018-08-30T09:23:40.771Z,20.00
2018-08-30T09:26:09.595Z,19.80
2018-08-30T09:28:37.843Z,19.80
2018-08-30T09:31:06.356Z,19.70
2018-08-30T09:33:35.333Z,19.60
2018-08-30T09:36:03.844Z,19.50
2018-08-30T09:38:32.130Z,19.40
2018-08-30T09:41:00.410Z,19.30
2018-08-30T09:43:28.774Z,19.20
2018-08-30T09:45:57.225Z,19.10
2018-08-30T09:48:26.085Z,19.00
2018-08-30T09:50:54.418Z,19.00
2018-08-30T09:53:22.704Z,18.80
2018-08-30T09:55:50.948Z,18.90
2018-08-30T09:58:19.051Z,18.80
2018-08-30T10:00:52.884Z,18.80
2018-08-30T10:03:21.366Z,18.90
2018-08-30T10:05:49.639Z,18.80
2018-08-30T10:08:17.854Z,18.90
2018-08-30T10:10:46.082Z,19.10
2018-08-30T10:13:14.355Z,19.20
2018-08-30T10:15:42.643Z,19.30
2018-08-30T10:18:10.817Z,19.30
2018-08-30T10:20:39.132Z,19.40
2018-08-30T10:23:07.741Z,19.60
2018-08-30T10:25:36.018Z,19.70
2018-08-30T10:28:10.768Z,19.80
2018-08-30T10:30:38.992Z,20.10
2018-08-30T10:33:07.313Z,20.50
2018-08-30T10:35:35.462Z,20.90
2018-08-30T10:38:03.685Z,21.30
2018-08-30T10:40:31.903Z,21.50
2018-08-30T10:43:00.140Z,21.60
2018-08-30T10:45:28.449Z,21.50
2018-08-30T10:47:56.648Z,21.40
2018-08-30T10:50:24.889Z,20.80
2018-08-30T10:52:53.228Z,20.60
2018-08-30T10:55:21.427Z,20.40
2018-08-30T10:57:49.608Z,20.40
2018-08-30T11:00:17.911Z,20.20
2018-08-30T11:02:46.647Z,19.90
2018-08-30T11:05:14.836Z,19.60
2018-08-30T11:07:43.052Z,19.40
2018-08-30T11:10:11.286Z,19.20
2018-08-30T11:12:39.552Z,19.20
2018-08-30T11:15:07.906Z,19.30
2018-08-30T11:17:36.683Z,19.30
2018-08-30T11:20:05.029Z,19.30
2018-08-30T11:22:33.295Z,19.20
2018-08-30T11:25:01.483Z,19.10
2018-08-30T11:27:29.761Z,19.00
2018-08-30T11:29:58.027Z,18.90
2018-08-30T11:32:26.322Z,18.90
2018-08-30T11:34:54.758Z,18.80
2018-08-30T11:37:23.896Z,18.80
2018-08-30T11:39:52.157Z,18.70
2018-08-30T11:42:20.453Z,18.80
2018-08-30T11:44:48.654Z,18.70
2018-08-30T11:47:16.915Z,18.70
2018-08-30T11:49:45.128Z,18.60
2018-08-30T11:52:13.445Z,18.60
2018-08-30T11:54:41.768Z,18.60
2018-08-30T11:57:10.001Z,18.80
2018-08-30T11:59:38.359Z,19.10
2018-08-30T12:02:06.659Z,19.50
2018-08-30T12:04:35.748Z,19.80
2018-08-30T12:07:04.257Z,20.10
2018-08-30T12:09:32.665Z,20.30
2018-08-30T12:12:01.480Z,20.30
2018-08-30T12:14:29.699Z,20.50
2018-08-30T12:16:57.960Z,20.60
2018-08-30T12:19:26.382Z,20.50
2018-08-30T12:21:54.760Z,20.40
2018-08-30T12:24:22.974Z,20.30
2018-08-30T12:26:51.254Z,20.30
2018-08-30T12:29:19.571Z,20.40
2018-08-30T12:31:47.913Z,20.40
2018-08-30T12:34:16.471Z,20.30
2018-08-30T12:36:44.707Z,20.10
2018-08-30T12:39:13.772Z,20.00
2018-08-30T12:41:42.204Z,19.90
2018-08-30T12:44:10.507Z,19.70
2018-08-30T12:46:38.812Z,19.60
2018-08-30T12:49:07.181Z,19.70
2018-08-30T12:51:35.660Z,19.70
2018-08-30T12:54:04.071Z,19.70
2018-08-30T12:56:32.370Z,19.70
2018-08-30T12:59:06.269Z,19.70
2018-08-30T13:01:34.782Z,19.60
2018-08-30T13:04:02.974Z,19.80
2018-08-30T13:06:31.244Z,19.90
2018-08-30T13:08:59.904Z,20.00
2018-08-30T13:11:28.055Z,20.20
2018-08-30T13:13:56.355Z,20.20
2018-08-30T13:16:24.526Z,20.10
2018-08-30T13:18:52.776Z,20.00
2018-08-30T13:21:21.213Z,20.10
2018-08-30T13:23:49.485Z,20.20
2018-08-30T13:26:17.830Z,20.30
2018-08-30T13:28:45.887Z,20.20
2018-08-30T13:31:14.298Z,20.10
2018-08-30T13:33:42.668Z,20.10
2018-08-30T13:36:11.389Z,20.40
2018-08-30T13:38:40.057Z,20.50
2018-08-30T13:41:08.831Z,20.70
2018-08-30T13:43:37.703Z,20.80
2018-08-30T13:46:05.825Z,20.90
2018-08-30T13:48:34.083Z,20.80
2018-08-30T13:51:02.308Z,20.60
2018-08-30T13:53:31.240Z,20.60
2018-08-30T13:55:59.740Z,20.40
2018-08-30T13:58:28.170Z,20.30
2018-08-30T14:00:56.420Z,20.10
2018-08-30T14:03:24.666Z,20.10
2018-08-30T14:05:52.869Z,20.10
2018-08-30T14:08:21.316Z,20.00
2018-08-30T14:10:49.906Z,19.90
2018-08-30T14:13:18.098Z,19.90
2018-08-30T14:15:46.005Z,19.80
2018-08-30T14:18:14.216Z,19.80
2018-08-30T14:20:43.315Z,19.80
2018-08-30T14:23:11.666Z,19.90
2018-08-30T14:25:40.059Z,20.00
2018-08-30T14:28:09.351Z,20.10
2018-08-30T14:30:39.273Z,20.10
2018-08-30T14:33:07.790Z,20.20
2018-08-30T14:35:48.755Z,20.10
2018-08-30T14:38:18.397Z,20.10
2018-08-30T14:40:47.006Z,20.10
2018-08-30T14:46:12.553Z,20.10
2018-08-30T14:48:40.825Z,20.20
2018-08-30T14:51:09.271Z,20.30
2018-08-30T14:53:37.921Z,20.30
2018-08-30T14:56:06.378Z,20.40
2018-08-30T14:58:39.850Z,20.50
2018-08-30T15:01:25.667Z,20.70
2018-08-30T15:04:23.866Z,20.80
2018-08-30T15:07:08.636Z,21.00
2018-08-30T15:09:40.742Z,21.30
2018-08-30T15:12:10.300Z,21.50
2018-08-30T15:14:40.104Z,21.40
2018-08-30T15:17:09.676Z,21.30
2018-08-30T15:22:16.053Z,21.30
2018-08-30T15:24:48.390Z,21.30
2018-08-30T15:27:18.493Z,21.40
2018-08-30T15:29:48.354Z,21.50
2018-08-30T15:32:20.721Z,21.50
2018-08-30T15:35:04.236Z,21.40
2018-08-30T15:40:20.092Z,21.20
2018-08-30T15:42:48.640Z,20.90
2018-08-30T15:45:29.913Z,20.70
2018-08-30T15:48:03.689Z,20.60
2018-08-30T15:50:33.906Z,20.50
2018-08-30T15:53:04.746Z,20.50
2018-08-30T15:55:34.307Z,20.40
2018-08-30T15:58:04.265Z,20.40
2018-08-30T16:00:41.550Z,20.40
2018-08-30T16:03:15.686Z,20.30
2018-08-30T16:05:44.622Z,20.20
2018-08-30T16:08:13.352Z,20.10
2018-08-30T16:10:41.770Z,20.10
2018-08-30T16:13:10.247Z,20.10
2018-08-30T16:15:38.937Z,20.00
2018-08-30T16:18:08.139Z,20.00
2018-08-30T16:20:39.407Z,20.00
2018-08-30T16:25:17.092Z,19.90
2018-08-30T16:27:46.460Z,19.90
2018-08-30T16:30:14.909Z,19.60
2018-08-30T16:32:43.533Z,19.40
2018-08-30T16:35:12.209Z,19.20
2018-08-30T16:37:41.682Z,19.00
2018-08-30T16:40:10.277Z,18.90
2018-08-30T16:42:38.646Z,18.70
2018-08-30T16:45:07.679Z,18.60
2018-08-30T16:47:36.446Z,18.40
2018-08-30T16:50:04.963Z,18.30
2018-08-30T16:52:36.436Z,18.30
2018-08-30T16:55:05.221Z,18.30
2018-08-30T16:57:33.805Z,18.30
2018-08-30T17:00:02.987Z,18.20
2018-08-30T17:02:31.985Z,18.20
2018-08-30T17:05:00.971Z,18.10
2018-08-30T17:07:29.789Z,18.10
2018-08-30T17:09:59.147Z,18.10
2018-08-30T17:12:28.146Z,18.10
2018-08-30T17:14:57.263Z,18.00
2018-08-30T17:17:27.309Z,18.00
2018-08-30T17:19:56.149Z,18.00
2018-08-30T17:22:25.539Z,18.00
2018-08-30T17:24:54.907Z,18.00
2018-08-30T17:27:24.058Z,17.90
2018-08-30T17:29:52.883Z,17.90
2018-08-30T17:32:22.162Z,17.90
2018-08-30T17:34:50.880Z,17.90
2018-08-30T17:37:19.642Z,17.80
2018-08-30T17:39:49.712Z,17.70
2018-08-30T17:42:18.439Z,17.60
2018-08-30T17:44:48.510Z,17.40
2018-08-30T17:47:18.053Z,17.30
2018-08-30T17:49:48.457Z,17.20
2018-08-30T17:52:17.440Z,17.20
2018-08-30T17:54:46.421Z,17.20
2018-08-30T17:57:16.718Z,17.20
2018-08-30T18:03:07.755Z,17.10
2018-08-30T18:05:36.719Z,17.00
2018-08-30T18:08:05.692Z,16.90
2018-08-30T18:10:37.296Z,16.80
2018-08-30T18:13:06.460Z,16.80
2018-08-30T18:15:35.369Z,16.70
2018-08-30T18:18:05.141Z,16.70
2018-08-30T18:20:35.029Z,16.70
2018-08-30T18:25:44.437Z,16.80
2018-08-30T18:28:12.718Z,16.80
2018-08-30T18:30:40.933Z,16.80
2018-08-30T18:33:09.236Z,16.80
2018-08-30T18:35:37.420Z,16.80
2018-08-30T18:38:05.669Z,16.80
2018-08-30T18:40:33.870Z,16.70
2018-08-30T18:43:02.103Z,16.70
2018-08-30T18:45:30.274Z,16.80
2018-08-30T18:47:58.456Z,16.70
2018-08-30T18:50:26.594Z,16.70
2018-08-30T18:52:54.819Z,16.70
2018-08-30T18:55:23.078Z,16.70
2018-08-30T18:57:51.285Z,16.70
2018-08-30T19:00:20.116Z,16.70
2018-08-30T19:02:48.382Z,16.70
2018-08-30T19:05:16.586Z,16.70
2018-08-30T19:07:44.699Z,16.70
2018-08-30T19:10:12.918Z,16.60
2018-08-30T19:12:41.122Z,16.60
2018-08-30T19:15:15.284Z,16.70
2018-08-30T19:17:49.370Z,16.70
2018-08-30T19:20:17.634Z,16.70
2018-08-30T19:22:45.877Z,16.70
2018-08-30T19:25:15.422Z,16.70
2018-08-30T19:27:45.246Z,16.70
2018-08-30T19:30:18.959Z,16.70
2018-08-30T19:32:48.102Z,16.60
2018-08-30T19:35:22.026Z,16.50
2018-08-30T19:37:50.295Z,16.50
2018-08-30T19:40:24.558Z,16.40
2018-08-30T19:42:52.943Z,16.30
2018-08-30T19:45:21.126Z,16.20
2018-08-30T19:47:49.481Z,16.10
2018-08-30T19:50:18.002Z,16.00
2018-08-30T19:52:46.287Z,15.90
2018-08-30T19:55:14.641Z,15.80
2018-08-30T19:57:42.808Z,15.80
2018-08-30T20:00:11.182Z,15.70
2018-08-30T20:02:39.414Z,15.70
2018-08-30T20:05:07.734Z,15.60
2018-08-30T20:07:36.180Z,15.60
2018-08-30T20:10:05.277Z,15.50
2018-08-30T20:12:33.437Z,15.60
2018-08-30T20:15:02.104Z,15.50
2018-08-30T20:17:30.294Z,15.50
2018-08-30T20:19:58.471Z,15.50
2018-08-30T20:22:26.780Z,15.50
2018-08-30T20:24:56.006Z,15.40
2018-08-30T20:27:25.168Z,15.40
2018-08-30T20:29:53.525Z,15.40
2018-08-30T20:32:22.142Z,15.40
2018-08-30T20:34:50.401Z,15.50
2018-08-30T20:37:18.671Z,15.50
2018-08-30T20:39:46.883Z,15.50
2018-08-30T20:42:15.099Z,15.50
2018-08-30T20:44:44.608Z,15.50
2018-08-30T20:47:12.791Z,15.50
2018-08-30T20:49:40.998Z,15.50
2018-08-30T20:52:09.266Z,15.60
2018-08-30T20:54:37.910Z,15.60
2018-08-30T20:57:06.207Z,15.60
2018-08-30T20:59:34.604Z,15.60
2018-08-30T21:02:02.933Z,15.70
2018-08-30T21:04:31.142Z,15.70
2018-08-30T21:06:59.353Z,15.80
2018-08-30T21:09:27.563Z,15.90
2018-08-30T21:11:55.715Z,15.90
2018-08-30T21:14:23.901Z,16.00
2018-08-30T21:16:53.989Z,16.00
2018-08-30T21:19:22.105Z,16.00
2018-08-30T21:21:50.222Z,16.10
2018-08-30T21:24:18.429Z,16.10
2018-08-30T21:26:46.608Z,16.10
2018-08-30T21:29:14.750Z,16.20
2018-08-30T21:31:42.982Z,16.10
2018-08-30T21:34:11.304Z,16.10
2018-08-30T21:36:39.492Z,16.10
2018-08-30T21:39:08.732Z,16.10
2018-08-30T21:41:36.883Z,16.20
2018-08-30T21:44:05.438Z,16.20
2018-08-30T21:46:34.782Z,16.20
2018-08-30T21:49:03.292Z,16.20
2018-08-30T21:51:31.564Z,16.20
2018-08-30T21:53:59.854Z,16.20
2018-08-30T21:56:28.340Z,16.10
2018-08-30T21:58:56.679Z,16.10
2018-08-30T22:01:25.000Z,16.10
2018-08-30T22:03:53.302Z,16.10
2018-08-30T22:06:21.884Z,16.00
2018-08-30T22:08:50.034Z,16.00
2018-08-30T22:11:18.316Z,15.90
2018-08-30T22:13:46.641Z,15.90
2018-08-30T22:16:15.000Z,15.90
2018-08-30T22:18:43.377Z,15.90
2018-08-30T22:21:11.574Z,15.90
2018-08-30T22:23:39.682Z,15.80
2018-08-30T22:26:07.980Z,15.90
2018-08-30T22:28:36.079Z,15.90
2018-08-30T22:31:04.551Z,15.90
2018-08-30T22:33:32.715Z,15.90
2018-08-30T22:36:01.485Z,15.80
2018-08-30T22:38:29.620Z,15.80
2018-08-30T22:40:57.808Z,15.80
2018-08-30T22:43:25.971Z,15.80
2018-08-30T22:45:54.274Z,15.70
2018-08-30T22:48:23.188Z,15.70
2018-08-30T22:50:51.326Z,15.60
2018-08-30T22:53:19.581Z,15.60
2018-08-30T22:55:47.889Z,15.60
2018-08-30T22:58:16.114Z,15.60
2018-08-30T23:00:44.263Z,15.50
2018-08-30T23:03:12.715Z,15.50
2018-08-30T23:05:41.609Z,15.40
2018-08-30T23:08:10.413Z,15.30
2018-08-30T23:10:38.724Z,15.20
2018-08-30T23:13:07.485Z,15.20
2018-08-30T23:15:35.748Z,15.30
2018-08-30T23:18:04.021Z,15.30
2018-08-30T23:20:32.208Z,15.30
2018-08-30T23:23:00.636Z,15.40
2018-08-30T23:25:28.767Z,15.30
2018-08-30T23:27:57.102Z,15.30
2018-08-30T23:30:25.629Z,15.30
2018-08-30T23:32:53.929Z,15.20
2018-08-30T23:35:22.201Z,15.20
2018-08-30T23:37:50.557Z,15.10
2018-08-30T23:40:18.973Z,15.10
2018-08-30T23:42:47.385Z,15.10
2018-08-30T23:45:15.652Z,15.00
2018-08-30T23:47:43.950Z,15.00
2018-08-30T23:50:12.160Z,14.90
2018-08-30T23:52:40.519Z,14.80
2018-08-30T23:55:08.904Z,14.70
2018-08-30T23:58:48.008Z,14.70
